LL65 weather

Edgar Read Airport
Putnam, Illinois, United States

Public forecast

Using degrees Fahrenheit for public forecast. Weather courtesy of forecast.io.

METAR (pilot weather report)

Closest report is Marshall County Airport, 10.9 nm (20.2 km) SSE. Retrieved 2019/08/22 07:35 UTC (22 minutes ago):

KC75 220735Z AUTO 00000KT 10SM OVC120 21/19 A2998 RMK AO2 T02060193

TAF (pilot weather forecast)

Closest forecast is General Wayne A. Downing Peoria International Airport, 33.7 nm (62.4 km) SSW. Retrieved 2019/08/22 06:22 UTC (2 hours ago):

TAF KPIA 220520Z 2206/2306 VRB04KT P6SM SCT020 OVC120 FM221600 02010KT P6SM SCT030 BKN250 FM230500 07005KT P6SM SCT250